Terminal Aerodrome Forecast
Issued by NWS Lake Charles, LA

Home | Current Version | Previous Version | Text Only | Print | Product List | Glossary On
Versions: 1 2 3 4 5 6 7 8 9 10 11 12 13 14 15 16 17 18 19
000
FTUS44 KLCH 291419 AAC
TAFAEX
TAF AMD
KAEX 291419Z 2914/3012 17004KT P6SM BKN011 BKN250
     FM291900 17007KT P6SM VCTS SCT025 BKN045CB
     FM292300 15003KT P6SM SCT060 OVC130
     FM301100 15003KT 3SM BR BKN012 BKN090=

USA.gov is the U.S. government's official web portal to all federal, state and local government web resources and services.